Time;durP1;ratioP1;P1;durP2;ratioP2;P2;SDS_P1;SDS_P2;PMS_P1;PMS_P2;Temp;Humidity;BMP_temperature;BMP_pressure;BME280_temperature;BME280_humidity;BME280_pressure;Samples;Min_cycle;Max_cycle;Signal;HPM_P1;HPM_P2
2022/06/29 00:01:56;;;;;;;;;;;;;;;14.39;100.00;91316.88;5072679;28;19912;-68
2022/06/29 00:04:21;;;;;;;;;;;;;;;14.28;100.00;91317.53;5072610;28;19912;-67
2022/06/29 00:06:46;;;;;;;;;;;;;;;14.22;100.00;91316.94;5072613;28;19916;-68
2022/06/29 00:09:11;;;;;;;;;;;;;;;14.19;100.00;91314.09;5072555;28;19927;-68
2022/06/29 00:11:37;;;;;;;;;;;;;;;14.31;100.00;91314.22;5071818;28;20432;-68
2022/06/29 00:14:02;;;;;;;;;;;;;;;14.35;100.00;91307.13;5072493;28;20385;-68
2022/06/29 00:16:27;;;;;;;;;;;;;;;14.41;100.00;91308.53;5072459;28;19912;-68
2022/06/29 00:18:53;;;;;;;;;;;;;;;14.43;100.00;91300.94;5072409;28;19912;-66
2022/06/29 00:21:18;;;;;;;;;;;;;;;14.39;100.00;91300.03;5072397;28;19912;-67
2022/06/29 00:23:44;;;;;;;;;;;;;;;14.46;100.00;91299.53;5072136;28;19913;-68
2022/06/29 00:26:10;;;;;;;;;;;;;;;14.53;100.00;91303.31;5072223;28;19938;-68
2022/06/29 00:28:35;;;;;;;;;;;;;;;14.55;100.00;91303.75;5072575;28;19913;-67
2022/06/29 00:31:01;;;;;;;;;;;;;;;14.63;100.00;91302.13;5072146;28;19913;-68
2022/06/29 00:33:26;;;;;;;;;;;;;;;14.66;100.00;91299.59;5071939;28;19919;-67
2022/06/29 00:35:52;;;;;;;;;;;;;;;14.72;100.00;91286.03;5072035;28;20098;-67
2022/06/29 00:38:17;;;;;;;;;;;;;;;14.76;100.00;91286.94;5071993;28;19912;-67
2022/06/29 00:40:42;;;;;;;;;;;;;;;14.65;100.00;91287.31;5072013;28;19923;-67
2022/06/29 00:43:08;;;;;;;;;;;;;;;14.59;100.00;91283.25;5071898;28;19920;-67
2022/06/29 00:45:33;;;;;;;;;;;;;;;14.54;100.00;91275.41;5071899;28;19919;-67
2022/06/29 00:47:59;;;;;;;;;;;;;;;14.49;100.00;91275.59;5071835;28;19935;-67
2022/06/29 00:50:28;;;;;;;;;;;;;;;14.46;100.00;91281.59;5071848;28;19912;-67
2022/06/29 00:52:54;;;;;;;;;;;;;;;14.49;100.00;91286.28;5071714;28;19942;-67
2022/06/29 00:55:22;;;;;;;;;;;;;;;14.51;100.00;91276.03;5071597;28;19920;-67
2022/06/29 00:57:48;;;;;;;;;;;;;;;14.53;100.00;91289.13;5071712;28;19912;-67
2022/06/29 01:00:14;;;;;;;;;;;;;;;14.53;100.00;91284.56;5071827;28;19966;-68
2022/06/29 01:02:39;;;;;;;;;;;;;;;14.50;100.00;91284.41;5071888;28;19922;-68
2022/06/29 01:05:05;;;;;;;;;;;;;;;14.45;100.00;91277.34;5071741;28;19939;-68
2022/06/29 01:07:32;;;;;;;;;;;;;;;14.43;100.00;91276.06;5071664;28;19922;-67
2022/06/29 01:09:57;;;;;;;;;;;;;;;14.34;100.00;91271.53;5071651;28;19919;-69
2022/06/29 01:12:23;;;;;;;;;;;;;;;14.27;100.00;91265.91;5071524;28;19932;-69
2022/06/29 01:14:50;;;;;;;;;;;;;;;14.22;100.00;91273.34;5071678;28;19997;-68
2022/06/29 01:17:16;;;;;;;;;;;;;;;14.12;100.00;91276.38;5071464;28;19920;-67
2022/06/29 01:19:41;;;;;;;;;;;;;;;14.04;100.00;91281.44;5071462;28;19920;-67
2022/06/29 01:22:11;;;;;;;;;;;;;;;14.03;100.00;91282.53;5071415;28;19912;-67
2022/06/29 01:24:36;;;;;;;;;;;;;;;13.96;100.00;91279.56;5071322;28;19913;-67
2022/06/29 01:27:02;;;;;;;;;;;;;;;13.97;100.00;91275.78;5071366;28;20010;-67
2022/06/29 01:29:28;;;;;;;;;;;;;;;13.92;100.00;91275.19;5071417;28;19982;-67
2022/06/29 01:31:55;;;;;;;;;;;;;;;13.94;100.00;91272.97;5071372;28;20342;-67
2022/06/29 01:34:20;;;;;;;;;;;;;;;13.95;100.00;91288.72;5071287;28;19989;-67
2022/06/29 01:36:46;;;;;;;;;;;;;;;13.98;100.00;91280.03;5071304;28;20302;-67
2022/06/29 01:39:11;;;;;;;;;;;;;;;13.94;100.00;91284.47;5071321;28;19935;-67
2022/06/29 01:41:36;;;;;;;;;;;;;;;13.87;100.00;91278.03;5071303;28;19912;-67
2022/06/29 01:44:02;;;;;;;;;;;;;;;13.87;100.00;91273.44;5071180;28;19916;-67
2022/06/29 01:46:27;;;;;;;;;;;;;;;13.85;100.00;91262.28;5071254;28;19919;-66
2022/06/29 01:48:53;;;;;;;;;;;;;;;13.81;100.00;91272.06;5071145;28;20006;-67
2022/06/29 01:51:18;;;;;;;;;;;;;;;13.81;100.00;91269.41;5071431;28;19912;-66
2022/06/29 01:53:43;;;;;;;;;;;;;;;13.83;100.00;91267.19;5071002;28;19916;-66
2022/06/29 01:56:09;;;;;;;;;;;;;;;13.86;100.00;91266.53;5070777;28;19920;-66
2022/06/29 01:58:34;;;;;;;;;;;;;;;13.89;100.00;91260.56;5071438;28;19920;-67
2022/06/29 02:00:59;;;;;;;;;;;;;;;13.94;100.00;91268.41;5071186;28;19967;-67
2022/06/29 02:03:25;;;;;;;;;;;;;;;13.95;100.00;91269.97;5071071;28;19923;-67
2022/06/29 02:05:50;;;;;;;;;;;;;;;14.00;100.00;91277.81;5211364;23;19935;-66
2022/06/29 02:08:15;;;;;;;;;;;;;;;14.00;100.00;91277.81;5071356;28;19970;-67
2022/06/29 02:10:41;;;;;;;;;;;;;;;13.89;100.00;91270.50;5071135;28;19916;-66
2022/06/29 02:13:06;;;;;;;;;;;;;;;13.80;100.00;91273.19;5071006;28;19998;-67
2022/06/29 02:15:31;;;;;;;;;;;;;;;13.69;100.00;91275.41;5070797;28;19952;-68
2022/06/29 02:17:56;;;;;;;;;;;;;;;13.59;100.00;91261.59;5070872;28;19912;-67
2022/06/29 02:20:22;;;;;;;;;;;;;;;13.53;100.00;91268.19;5070939;28;20347;-67
2022/06/29 02:22:47;;;;;;;;;;;;;;;13.53;100.00;91268.19;5070990;28;19913;-67
2022/06/29 02:25:12;;;;;;;;;;;;;;;13.55;100.00;91266.78;5070839;28;20037;-67
2022/06/29 02:27:39;;;;;;;;;;;;;;;13.58;100.00;91263.50;5070939;28;20283;-67
2022/06/29 02:30:04;;;;;;;;;;;;;;;13.63;100.00;91257.97;5070874;28;19919;-67
2022/06/29 02:35:13;;;;;;;;;;;;;;;13.67;100.00;91247.41;5072575;28;19935;-67
2022/06/29 02:37:38;;;;;;;;;;;;;;;13.74;100.00;91248.50;5074355;28;20369;-67
2022/06/29 02:40:04;;;;;;;;;;;;;;;13.75;100.00;91242.06;5074364;28;20007;-67
2022/06/29 02:42:29;;;;;;;;;;;;;;;13.78;100.00;91243.31;5074288;28;20381;-67
2022/06/29 02:44:55;;;;;;;;;;;;;;;13.80;100.00;91241.09;5074347;28;20058;-69
2022/06/29 02:47:20;;;;;;;;;;;;;;;13.87;100.00;91236.00;5074132;28;19919;-67
2022/06/29 02:49:45;;;;;;;;;;;;;;;13.89;100.00;91236.50;5074104;28;19913;-68
2022/06/29 02:52:11;;;;;;;;;;;;;;;13.97;100.00;91241.03;5074104;28;19912;-68
2022/06/29 02:54:36;;;;;;;;;;;;;;;14.04;100.00;91240.50;5074049;28;19913;-67
2022/06/29 02:57:01;;;;;;;;;;;;;;;14.07;100.00;91237.22;5073762;28;19924;-68
2022/06/29 02:59:27;;;;;;;;;;;;;;;14.06;100.00;91236.44;5073980;28;19912;-68
2022/06/29 03:01:52;;;;;;;;;;;;;;;14.09;100.00;91243.03;5073930;28;19951;-67
2022/06/29 03:04:17;;;;;;;;;;;;;;;14.04;100.00;91238.66;5073855;28;19912;-67
2022/06/29 03:06:42;;;;;;;;;;;;;;;14.03;100.00;91237.06;5073523;28;19970;-67
2022/06/29 03:09:08;;;;;;;;;;;;;;;13.96;100.00;91244.81;5073769;28;19913;-67
2022/06/29 03:11:34;;;;;;;;;;;;;;;13.93;100.00;91229.41;5073707;28;20388;-67
2022/06/29 03:13:59;;;;;;;;;;;;;;;13.94;100.00;91224.84;5073648;28;19920;-68
2022/06/29 03:16:24;;;;;;;;;;;;;;;13.94;100.00;91227.50;5073501;28;19930;-68
2022/06/29 03:18:50;;;;;;;;;;;;;;;13.94;100.00;91225.63;5073956;28;20279;-67
2022/06/29 03:21:16;;;;;;;;;;;;;;;13.95;100.00;91229.06;5073607;28;20012;-67
2022/06/29 03:23:41;;;;;;;;;;;;;;;13.95;100.00;91221.84;5073737;28;19928;-65
2022/06/29 03:26:06;;;;;;;;;;;;;;;13.95;100.00;91226.41;5073440;28;19912;-66
2022/06/29 03:28:32;;;;;;;;;;;;;;;14.03;100.00;91229.03;5073470;28;20480;-67
2022/06/29 03:30:57;;;;;;;;;;;;;;;14.09;100.00;91226.97;5073418;28;19912;-66
2022/06/29 03:33:22;;;;;;;;;;;;;;;14.03;100.00;91218.31;5073359;28;20336;-67
2022/06/29 03:35:48;;;;;;;;;;;;;;;14.06;100.00;91217.69;5073189;28;19912;-67
2022/06/29 03:38:13;;;;;;;;;;;;;;;14.07;100.00;91218.50;5073137;28;19912;-67
2022/06/29 03:40:38;;;;;;;;;;;;;;;14.01;100.00;91220.53;5073148;28;20008;-68
2022/06/29 03:43:03;;;;;;;;;;;;;;;14.01;100.00;91217.88;5073087;28;19912;-67
2022/06/29 03:45:29;;;;;;;;;;;;;;;13.94;100.00;91225.63;5072498;28;19970;-68
2022/06/29 03:47:54;;;;;;;;;;;;;;;13.93;100.00;91217.91;5072489;28;19981;-67
2022/06/29 03:50:19;;;;;;;;;;;;;;;13.84;100.00;91217.16;5072977;28;19917;-66
2022/06/29 03:52:45;;;;;;;;;;;;;;;13.79;100.00;91221.59;5073216;28;19916;-68
2022/06/29 03:55:10;;;;;;;;;;;;;;;13.80;100.00;91230.38;5073094;28;20412;-68
2022/06/29 03:57:36;;;;;;;;;;;;;;;13.79;100.00;91223.47;5072736;28;19952;-68
2022/06/29 04:00:02;;;;;;;;;;;;;;;13.87;100.00;91224.53;5072796;28;19923;-68
2022/06/29 04:02:27;;;;;;;;;;;;;;;13.90;100.00;91216.69;5072714;28;19919;-69
2022/06/29 04:04:53;;;;;;;;;;;;;;;13.93;100.00;91224.06;5072620;28;19912;-68
2022/06/29 04:07:18;;;;;;;;;;;;;;;13.94;100.00;91230.97;5072459;28;19916;-69
2022/06/29 04:09:43;;;;;;;;;;;;;;;13.94;100.00;91222.16;5072607;28;19912;-68
2022/06/29 04:12:09;;;;;;;;;;;;;;;13.97;100.00;91230.31;5072577;28;20017;-67
2022/06/29 04:14:34;;;;;;;;;;;;;;;14.02;100.00;91235.47;5072457;28;20313;-68
2022/06/29 04:16:59;;;;;;;;;;;;;;;14.01;100.00;91225.88;5072227;28;19966;-68
2022/06/29 04:19:25;;;;;;;;;;;;;;;14.02;100.00;91232.03;5072379;28;19999;-67
2022/06/29 04:21:51;;;;;;;;;;;;;;;14.07;100.00;91226.50;5072408;28;20007;-67
2022/06/29 04:24:16;;;;;;;;;;;;;;;14.15;100.00;91222.22;5072332;28;20416;-68
2022/06/29 04:26:42;;;;;;;;;;;;;;;14.27;100.00;91220.41;5072482;28;19948;-68
2022/06/29 04:29:07;;;;;;;;;;;;;;;14.36;100.00;91221.16;5072246;28;20396;-67
2022/06/29 04:31:33;;;;;;;;;;;;;;;14.44;100.00;91221.47;5072189;28;19913;-67
2022/06/29 04:33:59;;;;;;;;;;;;;;;14.38;100.00;91228.88;5072188;28;20007;-67
2022/06/29 04:36:24;;;;;;;;;;;;;;;14.39;100.00;91230.44;5071900;28;20404;-68
2022/06/29 04:38:49;;;;;;;;;;;;;;;14.47;100.00;91226.94;5072043;28;20447;-69
2022/06/29 04:41:15;;;;;;;;;;;;;;;14.55;100.00;91228.78;5071931;28;20015;-70
2022/06/29 04:43:41;;;;;;;;;;;;;;;14.66;100.00;91221.16;5072021;28;20405;-70
2022/06/29 04:46:22;;;;;;;;;;;;;;;14.80;100.00;91213.66;5071794;28;19913;-70
2022/06/29 04:48:51;;;;;;;;;;;;;;;14.85;100.00;91218.81;5053808;28;19963;-69
2022/06/29 04:51:17;;;;;;;;;;;;;;;15.03;100.00;91210.66;5071794;28;19917;-69
2022/06/29 04:53:44;;;;;;;;;;;;;;;15.21;100.00;91214.75;5071732;28;19919;-69
2022/06/29 04:56:10;;;;;;;;;;;;;;;15.33;100.00;91214.00;5071588;28;20007;-69
2022/06/29 04:58:35;;;;;;;;;;;;;;;15.44;100.00;91210.56;5071242;28;20007;-69
2022/06/29 05:01:00;;;;;;;;;;;;;;;15.62;100.00;91205.03;5071541;28;19913;-70
2022/06/29 05:03:26;;;;;;;;;;;;;;;15.76;100.00;91198.25;5071602;28;19979;-70
2022/06/29 05:05:51;;;;;;;;;;;;;;;15.85;100.00;91192.81;5071314;28;20141;-70
2022/06/29 05:08:17;;;;;;;;;;;;;;;16.03;100.00;91204.13;5071388;28;19916;-69
2022/06/29 05:10:42;;;;;;;;;;;;;;;16.30;100.00;91202.69;5071817;28;19917;-70
2022/06/29 05:13:10;;;;;;;;;;;;;;;16.66;100.00;91201.84;5071411;28;19913;-69
2022/06/29 05:15:38;;;;;;;;;;;;;;;16.93;100.00;91203.84;5071334;28;19991;-70
2022/06/29 05:18:04;;;;;;;;;;;;;;;17.28;100.00;91189.84;5071300;28;19912;-69
2022/06/29 05:20:29;;;;;;;;;;;;;;;17.59;100.00;91197.97;5071524;28;20384;-69
2022/06/29 07:30:04;;;;;;;;;;;;;;;35.57;38.70;91196.38;5073573;28;20405;-67
2022/06/29 07:32:30;;;;;;;;;;;;;;;37.57;34.92;91200.16;5073779;28;19965;-68
2022/06/29 07:34:56;;;;;;;;;;;;;;;38.99;33.87;91203.22;5072445;28;20010;-68
2022/06/29 07:37:21;;;;;;;;;;;;;;;37.07;35.90;91201.72;5072947;28;19912;-68
2022/06/29 07:39:46;;;;;;;;;;;;;;;34.79;39.58;91195.44;5072956;28;19912;-67
2022/06/29 07:42:12;;;;;;;;;;;;;;;35.98;37.72;91198.63;5072865;28;19920;-69
2022/06/29 07:44:37;;;;;;;;;;;;;;;35.90;39.40;91188.31;5072807;28;20309;-67
2022/06/29 07:47:02;;;;;;;;;;;;;;;36.56;37.22;91189.34;5072816;28;19973;-67
2022/06/29 07:49:28;;;;;;;;;;;;;;;37.37;34.96;91184.03;5072184;28;19912;-66
2022/06/29 07:51:53;;;;;;;;;;;;;;;36.26;35.70;91193.06;5072910;28;19912;-66
2022/06/29 07:54:19;;;;;;;;;;;;;;;36.65;35.66;91187.81;5072772;28;19970;-67
2022/06/29 07:56:44;;;;;;;;;;;;;;;34.89;38.11;91198.31;5072508;28;19922;-66
2022/06/29 07:59:09;;;;;;;;;;;;;;;34.28;38.89;91185.94;5072535;28;20282;-66
2022/06/29 08:01:35;;;;;;;;;;;;;;;34.06;39.40;91188.66;5072510;28;19912;-67
2022/06/29 08:04:00;;;;;;;;;;;;;;;33.90;40.24;91189.63;5072094;28;20290;-68
2022/06/29 08:06:26;;;;;;;;;;;;;;;34.79;39.05;91195.44;5072345;28;19912;-68
2022/06/29 08:08:51;;;;;;;;;;;;;;;35.04;39.37;91191.00;5072294;28;19912;-69
2022/06/29 08:11:17;;;;;;;;;;;;;;;35.74;38.23;91192.09;5072283;28;19916;-68
2022/06/29 08:13:42;;;;;;;;;;;;;;;33.93;38.99;91186.75;5072362;28;20382;-66
2022/06/29 08:16:08;;;;;;;;;;;;;;;33.62;39.92;91186.63;5165618;23;19922;-65
2022/06/29 08:18:34;;;;;;;;;;;;;;;34.68;39.12;91189.56;5051979;28;19921;-65
2022/06/29 08:20:59;;;;;;;;;;;;;;;36.12;37.96;91188.91;5052340;28;19919;-65
2022/06/29 08:23:24;;;;;;;;;;;;;;;35.37;40.67;91197.59;5052472;28;19920;-65
2022/06/29 08:25:50;;;;;;;;;;;;;;;33.45;40.25;91187.94;5051908;28;20378;-64
2022/06/29 08:28:15;;;;;;;;;;;;;;;33.06;42.76;91194.72;5052094;28;19916;-65
2022/06/29 08:30:40;;;;;;;;;;;;;;;34.81;40.18;91195.75;5052016;28;19916;-65
2022/06/29 08:33:06;;;;;;;;;;;;;;;35.84;38.09;91204.78;5051326;28;19917;-65
2022/06/29 08:35:31;;;;;;;;;;;;;;;33.59;40.02;91201.28;5034038;28;19948;-65
2022/06/29 08:37:56;;;;;;;;;;;;;;;35.22;40.09;91202.13;5051909;28;19916;-66
2022/06/29 08:40:22;;;;;;;;;;;;;;;36.59;35.29;91191.19;5051846;28;20011;-65
2022/06/29 08:42:48;;;;;;;;;;;;;;;33.82;39.09;91189.06;5051868;28;20448;-66
2022/06/29 08:45:15;;;;;;;;;;;;;;;35.99;37.69;91202.16;5052185;28;19918;-65
2022/06/29 08:47:41;;;;;;;;;;;;;;;37.74;33.19;91195.75;5051391;28;19959;-66
2022/06/29 08:50:07;;;;;;;;;;;;;;;39.17;31.31;91205.81;5052076;28;19913;-66
2022/06/29 08:52:36;;;;;;;;;;;;;;;40.73;31.00;91208.44;5052109;28;19916;-66
2022/06/29 08:55:06;;;;;;;;;;;;;;;40.70;30.40;91210.91;5051885;28;19920;-66
2022/06/29 08:57:34;;;;;;;;;;;;;;;40.18;30.76;91207.28;5051732;28;19916;-66
2022/06/29 08:59:59;;;;;;;;;;;;;;;39.98;31.21;91208.03;5051596;28;19919;-65
2022/06/29 09:02:25;;;;;;;;;;;;;;;38.55;32.54;91203.94;5051673;28;19912;-67
2022/06/29 09:04:50;;;;;;;;;;;;;;;40.78;30.25;91207.69;5051913;28;19966;-67
2022/06/29 09:07:16;;;;;;;;;;;;;;;40.33;29.29;91204.41;5051493;28;19920;-67
2022/06/29 09:09:57;;;;;;;;;;;;;;;40.43;28.72;91203.03;5051485;28;19920;-67
2022/06/29 09:12:22;;;;;;;;;;;;;;;42.02;28.75;91204.66;5051481;28;19916;-67
2022/06/29 09:14:48;;;;;;;;;;;;;;;41.37;29.10;91196.88;5051425;28;20015;-67
2022/06/29 09:17:13;;;;;;;;;;;;;;;40.87;30.19;91207.56;5050578;28;19967;-68
2022/06/29 09:19:38;;;;;;;;;;;;;;;41.40;26.91;91203.47;5051325;28;19912;-67
2022/06/29 09:22:03;;;;;;;;;;;;;;;40.49;27.29;91203.84;5051303;28;19912;-69
2022/06/29 09:24:30;;;;;;;;;;;;;;;41.16;26.41;91198.94;5051317;28;19920;-69
2022/06/29 09:26:56;;;;;;;;;;;;;;;41.22;28.08;91199.75;5051209;28;19912;-68
2022/06/29 09:29:23;;;;;;;;;;;;;;;40.37;28.66;91188.22;5051077;28;19942;-68
2022/06/29 09:32:01;;;;;;;;;;;;;;;42.14;27.75;91195.09;5051564;28;20410;-68
2022/06/29 09:34:26;;;;;;;;;;;;;;;40.40;27.66;91195.66;5051274;28;19916;-66
2022/06/29 09:36:55;;;;;;;;;;;;;;;40.87;28.32;91196.38;5051085;28;19920;-66
2022/06/29 09:39:39;;;;;;;;;;;;;;;37.82;31.04;91192.59;5051284;28;19920;-66
2022/06/29 09:42:05;;;;;;;;;;;;;;;38.31;29.84;91189.31;5051282;28;19913;-66
2022/06/29 09:44:30;;;;;;;;;;;;;;;34.56;34.33;91186.88;5052219;28;20011;-66
2022/06/29 09:46:56;;;;;;;;;;;;;;;34.63;36.04;91192.91;5054889;28;19966;-66
2022/06/29 09:49:27;;;;;;;;;;;;;;;37.39;32.42;91189.13;5055462;28;19955;-65
2022/06/29 09:51:56;;;;;;;;;;;;;;;38.72;30.41;91195.16;5055536;28;20341;-65
2022/06/29 09:54:23;;;;;;;;;;;;;;;38.59;29.99;91187.81;5055188;28;20007;-65
2022/06/29 09:56:49;;;;;;;;;;;;;;;39.14;31.28;91192.09;5055026;28;19952;-65
2022/06/29 09:59:21;;;;;;;;;;;;;;;40.32;29.64;91194.50;5055163;28;19956;-65
2022/06/29 10:04:31;;;;;;;;;;;;;;;40.80;28.76;91191.22;5055295;28;19919;-65
2022/06/29 10:06:57;;;;;;;;;;;;;;;39.90;28.94;91194.97;5054842;28;19938;-67
2022/06/29 10:09:22;;;;;;;;;;;;;;;39.71;29.72;91181.31;5054870;28;20382;-69
2022/06/29 10:14:50;;;;;;;;;;;;;;;41.24;27.43;91179.72;5054920;28;19969;-68
2022/06/29 10:17:22;;;;;;;;;;;;;;;42.20;28.00;91179.09;5054690;28;19964;-68
2022/06/29 10:20:00;;;;;;;;;;;;;;;39.52;29.31;91186.38;5054894;28;19917;-68
2022/06/29 10:22:28;;;;;;;;;;;;;;;40.25;27.18;91181.78;5036914;28;19956;-67
2022/06/29 10:25:01;;;;;;;;;;;;;;;40.73;27.07;91186.88;5054763;28;20396;-68
2022/06/29 10:27:26;;;;;;;;;;;;;;;40.27;27.08;91184.06;5054467;28;20382;-68
2022/06/29 10:30:11;;;;;;;;;;;;;;;39.76;27.67;91179.84;5054735;28;19923;-68
2022/06/29 10:32:38;;;;;;;;;;;;;;;39.30;27.92;91177.69;5054641;28;20018;-68
2022/06/29 10:35:07;;;;;;;;;;;;;;;39.22;29.97;91176.53;5054593;28;19952;-68
2022/06/29 10:37:33;;;;;;;;;;;;;;;40.48;28.02;91171.66;5054317;28;20475;-68
2022/06/29 10:40:04;;;;;;;;;;;;;;;39.65;28.37;91174.16;5054761;28;19917;-68
2022/06/29 10:45:21;;;;;;;;;;;;;;;38.94;29.94;91167.69;5054603;28;19920;-68
2022/06/29 10:48:12;;;;;;;;;;;;;;;39.33;31.54;91170.38;5054325;28;20007;-68
2022/06/29 10:50:38;;;;;;;;;;;;;;;39.22;31.10;91168.16;5054039;28;20011;-68
2022/06/29 10:53:08;;;;;;;;;;;;;;;40.03;29.54;91176.69;5036458;28;20396;-68
2022/06/29 10:55:35;;;;;;;;;;;;;;;39.30;31.74;91176.91;5053620;28;19917;-69
2022/06/29 10:58:02;;;;;;;;;;;;;;;35.69;33.49;91173.34;5054400;28;19916;-68
2022/06/29 11:00:29;;;;;;;;;;;;;;;35.05;34.52;91167.66;5054203;28;19924;-68
2022/06/29 11:02:54;;;;;;;;;;;;;;;35.95;33.34;91160.75;5054061;28;20067;-68
2022/06/29 11:05:19;;;;;;;;;;;;;;;37.02;30.20;91161.53;5053628;28;20003;-68
2022/06/29 11:13:04;;;;;;;;;;;;;;;38.59;28.27;91159.25;5054258;28;19913;-67
2022/06/29 11:15:42;;;;;;;;;;;;;;;37.82;31.08;91150.94;5053701;28;20011;-68
2022/06/29 11:18:14;;;;;;;;;;;;;;;37.71;31.39;91157.00;5053495;28;19920;-68
2022/06/29 11:20:40;;;;;;;;;;;;;;;38.93;25.20;91153.03;5053754;28;20370;-68
2022/06/29 11:23:16;;;;;;;;;;;;;;;38.52;25.88;91149.28;5053702;28;19928;-68
2022/06/29 11:25:47;;;;;;;;;;;;;;;37.52;27.14;91150.81;5053587;28;19913;-68
2022/06/29 11:28:23;;;;;;;;;;;;;;;38.57;28.33;91143.03;5053651;28;20306;-69
2022/06/29 11:31:02;;;;;;;;;;;;;;;38.01;27.00;91127.31;5053531;28;19913;-67
2022/06/29 11:33:28;;;;;;;;;;;;;;;39.22;25.03;91129.97;5053518;28;20450;-68
2022/06/29 11:35:54;;;;;;;;;;;;;;;38.20;24.28;91137.09;5053427;28;19970;-68
2022/06/29 11:38:19;;;;;;;;;;;;;;;37.44;25.85;91133.75;5053374;28;19916;-68
2022/06/29 11:40:46;;;;;;;;;;;;;;;38.08;26.40;91131.75;5053389;28;19913;-69
2022/06/29 11:43:15;;;;;;;;;;;;;;;37.29;26.08;91132.91;5053280;28;19912;-68
2022/06/29 11:45:45;;;;;;;;;;;;;;;37.86;27.75;91132.09;5053149;28;20004;-69
2022/06/29 11:48:21;;;;;;;;;;;;;;;38.02;27.51;91120.53;5053121;28;20305;-69
2022/06/29 11:50:56;;;;;;;;;;;;;;;39.51;27.14;91128.34;5053227;28;19912;-69
2022/06/29 11:53:40;;;;;;;;;;;;;;;40.21;25.20;91130.25;5053086;28;19913;-69
2022/06/29 11:56:10;;;;;;;;;;;;;;;38.45;25.50;91127.41;5053202;28;19952;-69
2022/06/29 11:58:37;;;;;;;;;;;;;;;38.01;27.42;91116.22;5053037;28;19919;-69
2022/06/29 12:01:06;;;;;;;;;;;;;;;38.43;28.22;91120.81;5053058;28;20583;-69
2022/06/29 12:03:31;;;;;;;;;;;;;;;37.19;29.04;91117.50;5052937;28;19982;-69
2022/06/29 12:05:57;;;;;;;;;;;;;;;38.29;28.40;91114.75;5053035;28;20719;-69
2022/06/29 12:08:23;;;;;;;;;;;;;;;38.23;29.37;91116.69;5051894;28;20368;-69
2022/06/29 12:10:48;;;;;;;;;;;;;;;38.22;28.71;91103.25;5052754;28;19913;-68
2022/06/29 12:13:13;;;;;;;;;;;;;;;36.57;29.95;91104.97;5052841;28;19912;-68
2022/06/29 12:15:39;;;;;;;;;;;;;;;36.45;30.41;91102.38;5051991;28;19916;-68
2022/06/29 12:18:04;;;;;;;;;;;;;;;36.89;30.75;91108.25;5052441;28;19921;-68
2022/06/29 12:20:29;;;;;;;;;;;;;;;37.73;28.96;91112.91;5052657;28;20278;-68
2022/06/29 12:22:55;;;;;;;;;;;;;;;39.05;27.43;91109.44;5052585;28;19927;-68
2022/06/29 12:25:22;;;;;;;;;;;;;;;39.09;27.43;91107.25;5052434;28;19970;-69
2022/06/29 12:27:47;;;;;;;;;;;;;;;39.00;29.83;91107.38;5052492;28;19913;-68
2022/06/29 12:30:13;;;;;;;;;;;;;;;38.56;29.89;91097.03;5052387;28;19923;-67
2022/06/29 12:32:38;;;;;;;;;;;;;;;37.12;30.81;91095.69;5052245;28;20437;-68
2022/06/29 12:35:03;;;;;;;;;;;;;;;35.96;32.62;91086.75;5052135;28;19951;-67
2022/06/29 12:37:29;;;;;;;;;;;;;;;36.38;31.67;91097.94;5052251;28;19917;-68
2022/06/29 12:39:54;;;;;;;;;;;;;;;35.88;32.04;91094.63;5052332;28;20375;-68
2022/06/29 12:42:21;;;;;;;;;;;;;;;37.27;30.19;91096.53;5052237;28;19921;-68
2022/06/29 12:44:46;;;;;;;;;;;;;;;38.20;30.54;91100.19;5052271;28;20037;-68
2022/06/29 12:47:12;;;;;;;;;;;;;;;37.85;30.22;91091.66;5052115;28;20441;-68
2022/06/29 12:49:37;;;;;;;;;;;;;;;38.29;29.04;91092.50;5052082;28;19987;-68
2022/06/29 12:52:03;;;;;;;;;;;;;;;39.51;27.70;91098.50;5052142;28;20398;-69
2022/06/29 12:54:28;;;;;;;;;;;;;;;38.66;29.98;91100.47;5052121;28;20360;-69
2022/06/29 12:56:53;;;;;;;;;;;;;;;37.75;30.35;91104.88;5033847;28;19917;-69
2022/06/29 12:59:19;;;;;;;;;;;;;;;38.05;30.10;91100.91;5051988;28;19913;-69
2022/06/29 13:01:47;;;;;;;;;;;;;;;37.22;31.31;91102.69;5051902;28;20340;-69
2022/06/29 13:04:13;;;;;;;;;;;;;;;38.03;30.17;91086.72;5051812;28;19912;-69
2022/06/29 13:06:38;;;;;;;;;;;;;;;37.71;31.35;91082.03;5051706;28;20011;-68
2022/06/29 13:09:04;;;;;;;;;;;;;;;37.82;30.87;91082.28;5051715;28;20019;-68
2022/06/29 13:11:29;;;;;;;;;;;;;;;37.88;30.81;91079.63;5051749;28;20008;-68
2022/06/29 13:13:54;;;;;;;;;;;;;;;37.53;32.72;91088.47;5051709;28;19947;-69
2022/06/29 13:16:20;;;;;;;;;;;;;;;37.95;31.69;91087.56;5051305;28;19922;-69
2022/06/29 13:18:45;;;;;;;;;;;;;;;38.61;29.81;91090.78;5051383;28;19913;-69
2022/06/29 13:21:11;;;;;;;;;;;;;;;39.70;28.66;91090.66;5051683;28;20058;-69
2022/06/29 13:23:36;;;;;;;;;;;;;;;38.32;29.60;91086.00;5051624;28;19923;-68
2022/06/29 13:26:01;;;;;;;;;;;;;;;37.95;31.06;91079.25;5051473;28;19936;-69
2022/06/29 13:28:27;;;;;;;;;;;;;;;37.81;30.77;91085.53;5051588;28;19916;-68
2022/06/29 13:30:53;;;;;;;;;;;;;;;38.34;31.29;91083.50;5030097;28;19921;-69
2022/06/29 13:33:18;;;;;;;;;;;;;;;38.14;31.27;91079.81;5030989;28;19917;-68
2022/06/29 13:35:45;;;;;;;;;;;;;;;38.09;31.52;91072.16;5031228;28;19982;-67
2022/06/29 13:38:13;;;;;;;;;;;;;;;36.91;32.11;91061.41;5031615;28;19912;-68
2022/06/29 13:40:38;;;;;;;;;;;;;;;36.62;33.63;91064.00;5031485;28;19913;-68
2022/06/29 13:43:04;;;;;;;;;;;;;;;37.15;33.76;91064.97;5031346;28;19971;-68
2022/06/29 13:45:29;;;;;;;;;;;;;;;37.84;32.35;91063.13;5031217;28;19987;-68
2022/06/29 13:47:54;;;;;;;;;;;;;;;37.77;32.79;91052.41;5030924;28;20085;-69
2022/06/29 13:50:20;;;;;;;;;;;;;;;37.31;32.02;91061.06;5032004;28;19920;-68
2022/06/29 13:52:45;;;;;;;;;;;;;;;37.17;33.14;91058.97;5031317;28;19913;-69
2022/06/29 13:55:10;;;;;;;;;;;;;;;35.00;35.85;91055.63;5031157;28;19987;-68
2022/06/29 13:57:36;;;;;;;;;;;;;;;34.21;36.75;91054.38;5031156;28;19917;-68
2022/06/29 14:00:03;;;;;;;;;;;;;;;33.62;37.75;91050.66;5031261;28;20379;-67
2022/06/29 14:02:28;;;;;;;;;;;;;;;32.95;37.79;91054.47;5031005;28;19954;-67
2022/06/29 14:04:53;;;;;;;;;;;;;;;31.70;39.15;91048.47;5031011;28;20390;-68
2022/06/29 14:07:20;;;;;;;;;;;;;;;30.57;41.56;91044.72;5031192;28;19913;-68
2022/06/29 14:09:45;;;;;;;;;;;;;;;30.17;44.28;91039.41;5031094;28;19920;-68
2022/06/29 14:12:10;;;;;;;;;;;;;;;29.56;44.77;91042.69;5031084;28;19913;-68
2022/06/29 14:14:36;;;;;;;;;;;;;;;29.39;45.29;91039.06;5031031;28;19917;-68
2022/06/29 14:17:02;;;;;;;;;;;;;;;29.11;46.58;91039.63;5030259;28;19923;-68
2022/06/29 14:19:27;;;;;;;;;;;;;;;28.83;45.36;91033.44;5030932;28;19917;-68
2022/06/29 14:21:52;;;;;;;;;;;;;;;28.55;46.94;91031.19;5030836;28;19917;-62
2022/06/29 14:24:18;;;;;;;;;;;;;;;28.26;48.28;91036.41;5031202;28;20370;-62
2022/06/29 14:26:43;;;;;;;;;;;;;;;27.96;48.42;91037.22;5031118;28;19913;-62
2022/06/29 14:29:09;;;;;;;;;;;;;;;27.75;49.01;91030.84;5030947;28;20385;-62
2022/06/29 14:31:35;;;;;;;;;;;;;;;27.58;49.53;91031.84;5033144;28;19913;-62
2022/06/29 14:34:01;;;;;;;;;;;;;;;27.38;50.15;91028.22;5034799;28;19913;-62
2022/06/29 14:36:26;;;;;;;;;;;;;;;27.47;51.16;91025.75;5034579;28;19917;-63
2022/06/29 14:38:51;;;;;;;;;;;;;;;27.67;51.85;91021.22;5034400;28;19913;-62
2022/06/29 14:41:17;;;;;;;;;;;;;;;27.71;52.16;91027.41;5034422;28;19960;-62
2022/06/29 14:43:42;;;;;;;;;;;;;;;27.78;50.90;91023.03;5034402;28;19924;-62
2022/06/29 14:46:07;;;;;;;;;;;;;;;27.61;51.04;91017.34;5034304;28;20337;-61
2022/06/29 14:48:33;;;;;;;;;;;;;;;27.56;51.25;91017.03;5033817;28;19917;-60
2022/06/29 14:50:58;;;;;;;;;;;;;;;27.52;51.81;91014.34;5034422;28;19913;-62
2022/06/29 14:53:23;;;;;;;;;;;;;;;27.56;51.98;91009.59;5034239;28;19913;-61
2022/06/29 14:55:49;;;;;;;;;;;;;;;27.48;51.31;91015.59;5033985;28;19920;-62
2022/06/29 14:58:15;;;;;;;;;;;;;;;27.35;51.44;91013.41;5034191;28;19920;-62
2022/06/29 15:00:40;;;;;;;;;;;;;;;27.31;52.31;91004.50;5033985;28;20315;-63
2022/06/29 15:03:07;;;;;;;;;;;;;;;27.25;52.39;90997.91;5033695;28;19913;-62